createdAt,value
2023-03-06T00:03:17.879Z,6.53
2023-03-06T00:05:45.204Z,8.18
2023-03-06T00:08:12.226Z,7.82
2023-03-06T00:10:40.400Z,9.88
2023-03-06T00:13:11.073Z,6.18
2023-03-06T00:15:38.127Z,7.90
2023-03-06T00:18:06.468Z,6.53
2023-03-06T00:20:34.614Z,9.25
2023-03-06T00:23:01.869Z,9.50
2023-03-06T00:25:28.964Z,7.55
2023-03-06T00:27:56.179Z,6.60
2023-03-06T00:30:25.112Z,8.02
2023-03-06T00:32:53.332Z,5.93
2023-03-06T00:35:20.955Z,7.65
2023-03-06T00:37:48.260Z,6.85
2023-03-06T00:40:18.591Z,7.05
2023-03-06T00:42:46.230Z,5.53
2023-03-06T00:45:14.191Z,5.03
2023-03-06T00:47:41.840Z,6.70
2023-03-06T00:50:10.106Z,6.82
2023-03-06T00:52:37.331Z,5.97
2023-03-06T00:55:05.646Z,6.95
2023-03-06T00:57:32.712Z,5.03
2023-03-06T00:59:59.800Z,6.85
2023-03-06T01:02:26.863Z,6.50
2023-03-06T01:04:55.064Z,6.20
2023-03-06T01:07:22.370Z,8.50
2023-03-06T01:09:50.823Z,7.57
2023-03-06T01:12:17.876Z,5.80
2023-03-06T01:14:45.043Z,5.93
2023-03-06T01:17:12.070Z,5.97
2023-03-06T01:19:39.244Z,7.13
2023-03-06T01:22:06.262Z,7.28
2023-03-06T01:24:33.345Z,9.13
2023-03-06T01:27:00.356Z,7.90
2023-03-06T01:29:27.534Z,7.55
2023-03-06T01:31:54.626Z,6.97
2023-03-06T01:34:21.696Z,5.55
2023-03-06T01:36:48.692Z,7.05
2023-03-06T01:39:16.044Z,8.75
2023-03-06T01:41:43.163Z,7.07
2023-03-06T01:44:16.134Z,5.95
2023-03-06T01:46:44.838Z,7.07
2023-03-06T01:49:26.862Z,5.93
2023-03-06T01:52:11.958Z,6.47
2023-03-06T01:54:53.980Z,10.40
2023-03-06T01:57:26.609Z,6.72
2023-03-06T02:00:03.416Z,6.88
2023-03-06T02:02:45.501Z,8.07
2023-03-06T02:05:12.724Z,8.07
2023-03-06T02:07:42.786Z,6.43
2023-03-06T02:10:14.459Z,6.15
2023-03-06T02:12:43.862Z,6.40
2023-03-06T02:15:12.583Z,5.43
2023-03-06T02:17:41.369Z,9.98
2023-03-06T02:20:11.354Z,7.32
2023-03-06T02:22:48.982Z,8.00
2023-03-06T02:25:42.777Z,6.53
2023-03-06T02:28:16.973Z,6.20
2023-03-06T02:30:46.154Z,6.93
2023-03-06T02:33:22.835Z,6.15
2023-03-06T02:36:00.282Z,7.68
2023-03-06T02:38:34.383Z,6.68
2023-03-06T02:41:05.196Z,7.88
2023-03-06T02:43:35.960Z,5.55
2023-03-06T02:46:03.212Z,7.68
2023-03-06T02:48:30.370Z,7.70
2023-03-06T02:50:57.652Z,6.80
2023-03-06T02:53:26.110Z,7.20
2023-03-06T02:55:53.307Z,6.10
2023-03-06T02:58:21.103Z,6.75
2023-03-06T03:00:49.722Z,6.28
2023-03-06T03:03:17.520Z,7.82
2023-03-06T03:05:44.583Z,5.47
2023-03-06T03:08:19.584Z,6.88
2023-03-06T03:10:48.343Z,6.55
2023-03-06T03:13:15.647Z,6.22
2023-03-06T03:15:43.117Z,4.75
2023-03-06T03:18:12.011Z,7.57
2023-03-06T03:20:42.417Z,5.28
2023-03-06T03:23:09.781Z,5.95
2023-03-06T03:25:36.794Z,6.18
2023-03-06T03:28:04.588Z,7.57
2023-03-06T03:30:31.728Z,6.63
2023-03-06T03:32:58.908Z,8.80
2023-03-06T03:35:26.990Z,7.47
2023-03-06T03:37:55.431Z,6.30
2023-03-06T03:40:23.038Z,6.90
2023-03-06T03:42:51.433Z,6.45
2023-03-06T03:45:19.779Z,7.18
2023-03-06T03:47:47.022Z,8.73
2023-03-06T03:50:14.248Z,6.38
2023-03-06T03:52:41.780Z,8.43
2023-03-06T03:55:09.537Z,7.78
2023-03-06T03:57:39.639Z,7.30
2023-03-06T04:00:08.543Z,9.05
2023-03-06T04:02:47.907Z,20.05
2023-03-06T04:05:41.155Z,9.98
2023-03-06T04:10:42.201Z,10.45
2023-03-06T04:13:11.042Z,9.60
2023-03-06T04:15:42.350Z,8.32
2023-03-06T04:18:11.273Z,10.00
2023-03-06T04:20:39.053Z,7.90
2023-03-06T04:23:06.268Z,8.18
2023-03-06T04:25:33.478Z,8.88
2023-03-06T04:28:03.260Z,10.35
2023-03-06T04:30:31.240Z,9.00
2023-03-06T04:32:59.375Z,7.78
2023-03-06T04:35:27.851Z,7.22
2023-03-06T04:38:00.424Z,10.13
2023-03-06T04:40:32.542Z,8.43
2023-03-06T04:43:01.205Z,10.68
2023-03-06T04:45:29.703Z,9.80
2023-03-06T04:47:56.979Z,9.52
2023-03-06T04:50:25.241Z,6.68
2023-03-06T04:52:53.038Z,9.60
2023-03-06T04:55:20.319Z,9.65
2023-03-06T04:57:48.436Z,11.77
2023-03-06T05:00:18.263Z,11.25
2023-03-06T05:05:13.854Z,8.98
2023-03-06T05:07:41.481Z,8.27
2023-03-06T05:10:12.394Z,7.82
2023-03-06T05:12:39.872Z,7.78
2023-03-06T05:15:08.369Z,8.77
2023-03-06T05:17:35.630Z,7.40
2023-03-06T05:20:03.015Z,9.32
2023-03-06T05:22:30.681Z,8.98
2023-03-06T05:24:57.685Z,8.60
2023-03-06T05:27:24.750Z,8.95
2023-03-06T05:29:51.784Z,9.02
2023-03-06T05:32:18.941Z,9.25
2023-03-06T05:34:49.307Z,10.75
2023-03-06T05:37:16.380Z,8.35
2023-03-06T05:39:43.611Z,8.90
2023-03-06T05:42:13.039Z,9.57
2023-03-06T05:44:41.805Z,9.85
2023-03-06T05:47:09.346Z,8.07
2023-03-06T05:49:36.964Z,9.77
2023-03-06T05:52:06.005Z,10.23
2023-03-06T05:54:34.713Z,5.43
2023-03-06T05:57:03.096Z,6.38
2023-03-06T05:59:30.188Z,6.55
2023-03-06T06:01:57.981Z,6.30
2023-03-06T06:04:26.574Z,7.60
2023-03-06T06:07:00.752Z,8.80
2023-03-06T06:09:28.437Z,7.00
2023-03-06T06:11:58.571Z,9.40
2023-03-06T06:14:25.956Z,8.02
2023-03-06T06:16:53.656Z,8.27
2023-03-06T06:19:21.784Z,7.32
2023-03-06T06:21:51.419Z,6.18
2023-03-06T06:24:21.168Z,9.60
2023-03-06T06:29:17.190Z,7.05
2023-03-06T06:31:44.296Z,6.85
2023-03-06T06:34:12.164Z,8.02
2023-03-06T06:36:39.746Z,5.93
2023-03-06T06:39:07.960Z,7.70
2023-03-06T06:41:54.925Z,6.65
2023-03-06T06:44:23.009Z,8.32
2023-03-06T06:47:21.168Z,7.80
2023-03-06T06:52:05.976Z,11.88
2023-03-06T06:54:35.793Z,6.70
2023-03-06T06:59:29.694Z,13.73
2023-03-06T07:01:56.901Z,7.10
2023-03-06T07:04:23.958Z,10.85
2023-03-06T07:06:51.059Z,8.65
2023-03-06T07:09:18.371Z,9.00
2023-03-06T07:11:45.398Z,8.38
2023-03-06T07:14:12.454Z,8.20
2023-03-06T07:16:39.929Z,7.30
2023-03-06T07:19:07.784Z,8.45
2023-03-06T07:21:35.072Z,7.45
2023-03-06T07:24:02.110Z,6.82
2023-03-06T07:26:32.736Z,7.30
2023-03-06T07:29:01.189Z,6.25
2023-03-06T07:31:28.803Z,6.40
2023-03-06T07:33:56.346Z,8.32
2023-03-06T07:36:24.209Z,11.35
2023-03-06T07:38:51.259Z,4.70
2023-03-06T07:41:21.875Z,4.95
2023-03-06T07:43:50.095Z,9.35
2023-03-06T07:46:17.808Z,7.03
2023-03-06T07:48:45.092Z,6.15
2023-03-06T07:51:18.817Z,5.22
2023-03-06T07:53:46.124Z,4.88
2023-03-06T07:56:13.961Z,6.53
2023-03-06T07:58:44.011Z,6.03
2023-03-06T08:01:15.161Z,4.88
2023-03-06T08:03:42.740Z,3.63
2023-03-06T08:06:16.060Z,5.93
2023-03-06T08:08:44.871Z,6.90
2023-03-06T08:11:15.085Z,6.30
2023-03-06T08:13:42.851Z,6.20
2023-03-06T08:16:10.536Z,4.28
2023-03-06T08:18:39.939Z,5.13
2023-03-06T08:21:10.319Z,8.95
2023-03-06T08:23:38.184Z,4.40
2023-03-06T08:26:12.476Z,4.72
2023-03-06T08:28:40.041Z,5.35
2023-03-06T08:31:29.768Z,4.80
2023-03-06T08:33:58.745Z,4.22
2023-03-06T08:36:29.632Z,5.65
2023-03-06T08:38:57.301Z,5.32
2023-03-06T08:41:24.948Z,4.10
2023-03-06T08:43:52.171Z,5.20
2023-03-06T08:46:20.930Z,2.92
2023-03-06T08:48:48.393Z,4.85
2023-03-06T08:51:16.057Z,6.47
2023-03-06T08:53:44.355Z,5.25
2023-03-06T08:56:20.617Z,4.97
2023-03-06T08:58:48.804Z,4.47
2023-03-06T09:01:18.857Z,8.40
2023-03-06T09:03:46.713Z,6.13
2023-03-06T09:06:14.408Z,7.05
2023-03-06T09:08:44.764Z,6.88
2023-03-06T09:11:13.301Z,6.32
2023-03-06T09:13:40.593Z,6.93
2023-03-06T09:16:09.053Z,6.45
2023-03-06T09:18:37.014Z,5.15
2023-03-06T09:21:05.775Z,5.13
2023-03-06T09:23:32.968Z,5.88
2023-03-06T09:26:01.555Z,5.53
2023-03-06T09:28:28.790Z,4.72
2023-03-06T09:30:55.962Z,3.88
2023-03-06T09:33:23.518Z,5.78
2023-03-06T09:35:53.368Z,5.25
2023-03-06T09:38:21.907Z,2.97
2023-03-06T09:40:58.049Z,3.88
2023-03-06T09:43:47.092Z,2.50
2023-03-06T09:46:23.205Z,3.10
2023-03-06T09:49:15.334Z,2.65
2023-03-06T09:52:13.320Z,4.45
2023-03-06T09:54:46.334Z,2.67
2023-03-06T09:57:36.555Z,3.67
2023-03-06T10:00:15.458Z,4.72
2023-03-06T10:02:50.782Z,4.97
2023-03-06T10:05:26.407Z,3.65
2023-03-06T10:10:28.201Z,3.85
2023-03-06T10:13:13.547Z,4.75
2023-03-06T10:15:44.540Z,6.30
2023-03-06T10:18:13.123Z,5.10
2023-03-06T10:21:18.485Z,5.25
2023-03-06T10:23:54.015Z,4.88
2023-03-06T10:26:34.117Z,4.82
2023-03-06T10:29:13.127Z,3.72
2023-03-06T10:31:49.686Z,3.55
2023-03-06T10:34:32.733Z,4.28
2023-03-06T10:37:05.951Z,5.97
2023-03-06T10:39:33.037Z,6.47
2023-03-06T10:42:00.126Z,3.17
2023-03-06T10:44:27.317Z,4.28
2023-03-06T10:46:54.865Z,4.10
2023-03-06T10:49:26.718Z,4.03
2023-03-06T10:51:58.816Z,2.92
2023-03-06T10:54:26.677Z,3.70
2023-03-06T10:56:53.830Z,2.88
2023-03-06T10:59:28.417Z,3.58
2023-03-06T11:01:58.217Z,5.22
2023-03-06T11:04:46.564Z,4.10
2023-03-06T11:07:20.272Z,4.68
2023-03-06T11:09:59.431Z,3.33
2023-03-06T11:12:37.728Z,5.43
2023-03-06T11:15:07.944Z,5.93
2023-03-06T11:17:38.016Z,3.00
2023-03-06T11:20:22.290Z,4.22
2023-03-06T11:23:12.327Z,2.40
2023-03-06T11:25:50.565Z,1.33
2023-03-06T11:28:47.235Z,3.53
2023-03-06T11:31:20.086Z,4.38
2023-03-06T11:33:59.152Z,1.75
2023-03-06T11:36:48.317Z,2.03
2023-03-06T11:39:30.184Z,2.58
2023-03-06T11:42:27.955Z,3.40
2023-03-06T11:45:16.951Z,2.05
2023-03-06T11:47:54.795Z,1.75
2023-03-06T11:50:25.635Z,4.28
2023-03-06T11:52:57.966Z,1.88
2023-03-06T11:55:35.204Z,3.33
2023-03-06T11:58:29.864Z,2.47
2023-03-06T12:01:20.911Z,3.30
2023-03-06T12:04:14.001Z,2.63
2023-03-06T12:06:59.858Z,6.18
2023-03-06T12:09:45.294Z,5.32
2023-03-06T12:12:22.580Z,4.00
2023-03-06T12:14:58.465Z,3.92
2023-03-06T12:18:01.399Z,5.53
2023-03-06T12:20:43.463Z,6.40
2023-03-06T12:24:04.866Z,5.65
2023-03-06T12:26:43.583Z,6.63
2023-03-06T12:30:04.568Z,5.63
2023-03-06T12:32:41.662Z,6.15
2023-03-06T12:35:21.334Z,4.82
2023-03-06T12:38:25.468Z,6.68
2023-03-06T12:40:55.506Z,6.00
2023-03-06T12:43:42.714Z,7.90
2023-03-06T12:46:17.157Z,5.82
2023-03-06T12:48:48.891Z,5.20
2023-03-06T12:51:20.677Z,12.13
2023-03-06T12:53:50.061Z,5.63
2023-03-06T12:56:19.305Z,4.53
2023-03-06T12:58:53.842Z,6.00
2023-03-06T13:02:00.131Z,5.13
2023-03-06T13:04:48.257Z,6.47
2023-03-06T13:07:34.026Z,4.03
2023-03-06T13:10:25.764Z,5.05
2023-03-06T13:13:01.759Z,4.82
2023-03-06T13:15:31.347Z,4.97
2023-03-06T13:20:45.154Z,5.82
2023-03-06T13:23:30.659Z,5.03
2023-03-06T13:26:02.127Z,3.65
2023-03-06T13:28:46.552Z,4.70
2023-03-06T13:31:26.535Z,6.07
2023-03-06T13:33:55.992Z,5.90
2023-03-06T13:36:23.041Z,5.85
2023-03-06T13:38:52.663Z,6.30
2023-03-06T13:43:57.614Z,4.88
2023-03-06T13:46:37.615Z,5.85
2023-03-06T13:49:04.739Z,9.15
2023-03-06T13:52:05.712Z,4.60
2023-03-06T13:54:57.460Z,7.28
2023-03-06T13:57:33.307Z,4.32
2023-03-06T14:00:38.533Z,5.35
2023-03-06T14:03:56.334Z,4.82
2023-03-06T14:06:35.396Z,3.50
2023-03-06T14:09:06.242Z,4.53
2023-03-06T14:11:35.739Z,5.75
2023-03-06T14:14:03.512Z,4.05
2023-03-06T14:16:49.904Z,3.63
2023-03-06T14:19:19.080Z,3.80
2023-03-06T14:21:51.300Z,7.65
2023-03-06T14:24:48.021Z,5.43
2023-03-06T14:27:19.283Z,4.70
2023-03-06T14:29:48.834Z,5.55
2023-03-06T14:32:23.173Z,6.65
2023-03-06T14:34:50.328Z,5.50
2023-03-06T14:37:24.736Z,3.30
2023-03-06T14:39:52.381Z,6.68
2023-03-06T14:42:25.346Z,4.57
2023-03-06T14:45:16.043Z,4.20
2023-03-06T14:47:44.360Z,4.60
2023-03-06T14:50:34.305Z,3.72
2023-03-06T14:53:29.238Z,4.43
2023-03-06T14:56:04.398Z,3.33
2023-03-06T14:58:58.198Z,5.70
2023-03-06T15:01:34.456Z,5.95
2023-03-06T15:04:04.859Z,4.88
2023-03-06T15:06:43.594Z,5.65
2023-03-06T15:09:21.056Z,2.65
2023-03-06T15:12:27.375Z,5.20
2023-03-06T15:15:03.861Z,5.03
2023-03-06T15:17:45.936Z,4.85
2023-03-06T15:20:43.706Z,2.97
2023-03-06T15:23:27.407Z,2.95
2023-03-06T15:26:03.757Z,6.85
2023-03-06T15:28:34.822Z,3.85
2023-03-06T15:31:19.435Z,4.50
2023-03-06T15:34:01.851Z,4.05
2023-03-06T15:36:32.231Z,3.33
2023-03-06T15:39:00.957Z,5.57
2023-03-06T15:41:38.886Z,4.65
2023-03-06T15:44:12.319Z,6.82
2023-03-06T15:46:39.590Z,4.40
2023-03-06T15:49:14.692Z,8.05
2023-03-06T15:51:41.713Z,3.28
2023-03-06T15:54:12.256Z,2.00
2023-03-06T15:56:41.889Z,3.10
2023-03-06T15:59:34.780Z,3.45
2023-03-06T16:02:16.075Z,2.45
2023-03-06T16:04:43.655Z,3.17
2023-03-06T16:07:11.596Z,3.80
2023-03-06T16:09:41.860Z,2.72
2023-03-06T16:12:17.653Z,3.28
2023-03-06T16:14:49.229Z,5.85
2023-03-06T16:17:17.496Z,4.28
2023-03-06T16:19:44.878Z,3.30
2023-03-06T16:22:12.395Z,3.75
2023-03-06T16:24:39.659Z,2.97
2023-03-06T16:27:07.156Z,3.53
2023-03-06T16:29:35.301Z,7.20
2023-03-06T16:32:02.860Z,6.50
2023-03-06T16:34:30.067Z,4.95
2023-03-06T16:36:57.258Z,4.57
2023-03-06T16:39:24.548Z,4.20
2023-03-06T16:41:52.372Z,3.92
2023-03-06T16:44:20.762Z,4.03
2023-03-06T16:46:50.080Z,3.95
2023-03-06T16:49:25.130Z,5.00
2023-03-06T16:51:53.132Z,4.53
2023-03-06T16:54:20.398Z,5.50
2023-03-06T16:56:47.608Z,4.68
2023-03-06T16:59:14.859Z,3.20
2023-03-06T17:01:45.372Z,4.32
2023-03-06T17:04:13.186Z,5.43
2023-03-06T17:06:42.029Z,7.53
2023-03-06T17:09:10.962Z,4.15
2023-03-06T17:11:43.171Z,4.97
2023-03-06T17:14:10.494Z,5.25
2023-03-06T17:16:40.447Z,7.40
2023-03-06T17:19:07.928Z,6.43
2023-03-06T17:21:35.737Z,5.13
2023-03-06T17:24:03.934Z,5.18
2023-03-06T17:26:31.278Z,4.60
2023-03-06T17:28:58.460Z,6.50
2023-03-06T17:31:27.818Z,5.97
2023-03-06T17:33:59.276Z,5.50
2023-03-06T17:36:27.916Z,5.50
2023-03-06T17:38:57.000Z,5.07
2023-03-06T17:41:24.981Z,7.63
2023-03-06T17:43:53.372Z,7.15
2023-03-06T17:46:20.460Z,4.68
2023-03-06T17:48:47.856Z,4.57
2023-03-06T17:51:15.002Z,6.63
2023-03-06T17:53:42.041Z,4.57
2023-03-06T17:56:13.040Z,7.43
2023-03-06T17:58:40.056Z,5.10
2023-03-06T18:01:22.194Z,4.93
2023-03-06T18:03:51.302Z,7.70
2023-03-06T18:06:19.465Z,4.28
2023-03-06T18:08:52.302Z,5.57
2023-03-06T18:11:20.286Z,5.43
2023-03-06T18:13:47.461Z,5.43
2023-03-06T18:16:17.628Z,5.60
2023-03-06T18:18:45.537Z,8.65
2023-03-06T18:21:14.775Z,5.72
2023-03-06T18:23:41.998Z,5.20
2023-03-06T18:26:18.781Z,4.10
2023-03-06T18:28:49.412Z,4.97
2023-03-06T18:31:28.261Z,6.05
2023-03-06T18:33:58.029Z,3.10
2023-03-06T18:36:27.287Z,2.58
2023-03-06T18:38:54.980Z,5.32
2023-03-06T18:41:23.814Z,3.50
2023-03-06T18:43:59.506Z,4.78
2023-03-06T18:48:56.609Z,3.63
2023-03-06T18:51:23.631Z,4.05
2023-03-06T18:53:50.627Z,4.20
2023-03-06T18:56:22.652Z,6.20
2023-03-06T18:58:50.607Z,4.95
2023-03-06T19:01:18.666Z,4.10
2023-03-06T19:03:46.385Z,3.47
2023-03-06T19:06:15.639Z,4.68
2023-03-06T19:08:43.259Z,7.68
2023-03-06T19:11:16.726Z,2.20
2023-03-06T19:13:44.400Z,7.25
2023-03-06T19:16:24.055Z,5.65
2023-03-06T19:18:51.727Z,4.97
2023-03-06T19:21:21.687Z,7.00
2023-03-06T19:23:49.098Z,4.35
2023-03-06T19:26:18.703Z,6.65
2023-03-06T19:28:46.609Z,6.15
2023-03-06T19:31:25.879Z,4.53
2023-03-06T19:33:54.200Z,3.45
2023-03-06T19:36:26.789Z,4.75
2023-03-06T19:38:58.489Z,3.72
2023-03-06T19:41:26.514Z,4.65
2023-03-06T19:43:55.710Z,3.55
2023-03-06T19:46:23.872Z,2.38
2023-03-06T19:48:58.859Z,2.42
2023-03-06T19:51:27.027Z,5.78
2023-03-06T19:53:54.128Z,4.70
2023-03-06T19:56:24.292Z,3.03
2023-03-06T19:58:51.421Z,5.18
2023-03-06T20:01:20.942Z,5.03
2023-03-06T20:03:48.043Z,4.03
2023-03-06T20:06:20.258Z,3.63
2023-03-06T20:08:47.768Z,6.22
2023-03-06T20:11:25.849Z,3.45
2023-03-06T20:13:53.518Z,5.05
2023-03-06T20:16:20.565Z,4.00
2023-03-06T20:18:47.874Z,5.13
2023-03-06T20:21:15.324Z,4.53
2023-03-06T20:23:42.842Z,4.40
2023-03-06T20:26:12.627Z,6.05
2023-03-06T20:28:41.671Z,3.15
2023-03-06T20:31:09.853Z,6.22
2023-03-06T20:33:39.864Z,3.35
2023-03-06T20:36:14.678Z,4.25
2023-03-06T20:38:42.186Z,4.25
2023-03-06T20:41:24.875Z,5.82
2023-03-06T20:43:52.592Z,3.80
2023-03-06T20:46:21.101Z,4.40
2023-03-06T20:48:49.812Z,5.70
2023-03-06T20:51:19.755Z,2.88
2023-03-06T20:53:49.131Z,4.28
2023-03-06T20:56:19.002Z,4.50
2023-03-06T20:58:46.251Z,4.85
2023-03-06T21:01:19.844Z,6.85
2023-03-06T21:03:47.224Z,5.80
2023-03-06T21:06:14.302Z,3.90
2023-03-06T21:08:41.663Z,4.57
2023-03-06T21:11:09.083Z,3.28
2023-03-06T21:13:36.141Z,3.15
2023-03-06T21:16:12.607Z,5.15
2023-03-06T21:18:40.148Z,3.35
2023-03-06T21:21:13.420Z,2.70
2023-03-06T21:23:40.643Z,4.88
2023-03-06T21:26:07.885Z,3.38
2023-03-06T21:28:34.926Z,3.80
2023-03-06T21:31:02.734Z,3.80
2023-03-06T21:33:29.827Z,6.35
2023-03-06T21:35:56.963Z,4.35
2023-03-06T21:38:24.124Z,5.45
2023-03-06T21:40:51.168Z,6.15
2023-03-06T21:43:18.462Z,3.33
2023-03-06T21:45:47.050Z,5.88
2023-03-06T21:48:15.340Z,4.15
2023-03-06T21:50:42.584Z,5.00
2023-03-06T21:53:09.830Z,3.33
2023-03-06T21:55:40.956Z,2.70
2023-03-06T21:58:08.555Z,3.22
2023-03-06T22:00:36.703Z,4.97
2023-03-06T22:03:05.124Z,3.65
2023-03-06T22:05:32.233Z,2.85
2023-03-06T22:07:59.570Z,4.30
2023-03-06T22:10:26.597Z,3.53
2023-03-06T22:12:53.590Z,3.70
2023-03-06T22:15:21.970Z,4.53
2023-03-06T22:17:49.024Z,3.25
2023-03-06T22:20:16.272Z,4.18
2023-03-06T22:22:44.030Z,3.72
2023-03-06T22:25:12.025Z,3.53
2023-03-06T22:27:39.419Z,5.38
2023-03-06T22:30:07.194Z,4.55
2023-03-06T22:32:34.414Z,3.08
2023-03-06T22:35:01.510Z,4.75
2023-03-06T22:37:28.571Z,3.55
2023-03-06T22:39:55.585Z,2.63
2023-03-06T22:42:22.758Z,4.00
2023-03-06T22:44:49.795Z,3.83
2023-03-06T22:47:16.834Z,4.97
2023-03-06T22:49:43.891Z,4.90
2023-03-06T22:52:10.916Z,3.60
2023-03-06T22:54:37.897Z,3.72
2023-03-06T22:57:05.070Z,4.75
2023-03-06T22:59:32.114Z,5.50
2023-03-06T23:01:59.112Z,3.88
2023-03-06T23:04:26.197Z,4.72
2023-03-06T23:06:53.351Z,4.22
2023-03-06T23:09:21.963Z,5.20
2023-03-06T23:12:09.166Z,4.55
2023-03-06T23:14:55.087Z,7.35
2023-03-06T23:17:40.593Z,4.07
2023-03-06T23:20:26.078Z,6.03
2023-03-06T23:23:12.077Z,4.38
2023-03-06T23:28:08.712Z,4.47
2023-03-06T23:30:38.023Z,3.15
2023-03-06T23:33:05.394Z,6.70
2023-03-06T23:35:33.706Z,4.18
2023-03-06T23:38:02.500Z,3.63
2023-03-06T23:40:31.718Z,4.75
2023-03-06T23:42:58.735Z,5.00
2023-03-06T23:45:25.889Z,5.00
2023-03-06T23:47:52.892Z,3.92
2023-03-06T23:50:20.104Z,4.63
2023-03-06T23:52:47.104Z,5.40
2023-03-06T23:55:14.204Z,3.33
2023-03-06T23:57:41.231Z,4.43
